Time;durP1;ratioP1;P1;durP2;ratioP2;P2;SDS_P1;SDS_P2;PMS_P1;PMS_P2;Temp;Humidity;BMP_temperature;BMP_pressure;BME280_temperature;BME280_humidity;BME280_pressure;Samples;Min_cycle;Max_cycle;Signal;HPM_P1;HPM_P2
2023/08/22 00:01:00;;;;;;;8.50;7.55;;;;;;;22.90;81.45;65402.50;5031978;28;20217;-54
2023/08/22 00:03:25;;;;;;;8.65;7.70;;;;;;;22.74;82.64;65385.34;5050188;28;20205;-54
2023/08/22 00:05:50;;;;;;;10.07;7.10;;;;;;;22.73;82.93;65383.66;5032045;28;20202;-53
2023/08/22 00:08:16;;;;;;;8.43;7.60;;;;;;;22.65;83.30;65375.34;5050071;28;20209;-53
2023/08/22 00:10:42;;;;;;;8.95;7.97;;;;;;;22.61;83.91;65373.50;5050012;28;20198;-52
2023/08/22 00:13:07;;;;;;;12.98;8.77;;;;;;;22.58;84.47;65365.03;5050348;28;20585;-54
2023/08/22 00:15:34;;;;;;;10.25;8.48;;;;;;;22.46;85.67;65354.84;5031952;28;20708;-57
2023/08/22 00:18:00;;;;;;;9.15;8.15;;;;;;;22.57;85.24;65366.47;5032101;28;20307;-53
2023/08/22 00:20:26;;;;;;;8.77;7.85;;;;;;;22.63;84.96;65372.59;5049900;28;20282;-53
2023/08/22 00:22:51;;;;;;;8.45;7.60;;;;;;;22.59;85.88;65368.16;5049930;28;20229;-53
2023/08/22 00:25:17;;;;;;;8.88;7.28;;;;;;;22.72;85.24;65382.56;5049940;28;20650;-53
2023/08/22 00:27:42;;;;;;;9.65;7.18;;;;;;;22.84;84.49;65395.84;5049604;28;20216;-53
2023/08/22 00:30:08;;;;;;;8.13;7.32;;;;;;;22.96;84.02;65411.72;5051814;28;20205;-53
2023/08/22 00:32:34;;;;;;;12.32;8.05;;;;;;;22.97;83.77;65410.22;5053324;28;20232;-54
2023/08/22 00:35:00;;;;;;;7.93;7.22;;;;;;;22.88;83.07;65400.84;5053356;28;20640;-54
2023/08/22 00:37:26;;;;;;;9.15;8.23;;;;;;;22.74;83.92;65382.19;5053866;28;20228;-53
2023/08/22 00:39:53;;;;;;;10.00;7.90;;;;;;;22.73;83.78;65383.66;5053385;28;20184;-53
2023/08/22 00:42:19;;;;;;;12.65;8.23;;;;;;;22.68;84.43;65381.25;5052880;28;20221;-53
2023/08/22 00:44:44;;;;;;;8.15;7.35;;;;;;;22.59;84.91;65368.72;5053314;28;20655;-53
2023/08/22 00:47:10;;;;;;;9.18;7.35;;;;;;;22.62;85.45;65372.03;5053430;28;20224;-53
2023/08/22 00:49:37;;;;;;;9.23;8.25;;;;;;;22.56;85.57;65363.34;5053049;28;20700;-52
2023/08/22 00:52:04;;;;;;;10.23;7.72;;;;;;;22.47;86.35;65353.41;5052975;28;20205;-53
2023/08/22 00:54:30;;;;;;;9.60;7.65;;;;;;;22.45;86.56;65356.31;5053354;28;20201;-53
2023/08/22 00:56:57;;;;;;;13.18;7.97;;;;;;;22.33;87.11;65342.47;5053245;28;20222;-53
2023/08/22 00:59:25;;;;;;;8.40;7.38;;;;;;;22.23;88.08;65328.84;5052927;28;20209;-53
2023/08/22 01:01:51;;;;;;;8.63;7.80;;;;;;;22.23;88.52;65329.41;5052964;28;20221;-53
2023/08/22 01:04:17;;;;;;;8.55;7.75;;;;;;;22.15;89.02;65317.41;5052572;28;20208;-53
2023/08/22 01:07:05;;;;;;;9.10;7.88;;;;;;;22.07;89.80;65311.69;5052904;28;20213;-53
2023/08/22 01:09:52;;;;;;;8.85;7.97;;;;;;;21.99;90.82;65302.28;5052688;28;20177;-53
2023/08/22 01:12:39;;;;;;;9.98;8.38;;;;;;;22.11;90.11;65315.56;5052721;28;20213;-54
2023/08/22 01:15:24;;;;;;;8.98;8.02;;;;;;;22.29;88.66;65335.47;5052925;28;20200;-54
2023/08/22 01:17:53;;;;;;;10.57;7.93;;;;;;;22.21;89.32;65326.63;5052489;28;20221;-54
2023/08/22 01:20:18;;;;;;;9.25;8.20;;;;;;;22.09;90.06;65311.34;5052406;28;20198;-53
2023/08/22 01:22:44;;;;;;;9.32;7.55;;;;;;;21.91;90.67;65296.56;5052852;28;20616;-55
2023/08/22 01:25:10;;;;;;;8.80;7.82;;;;;;;21.82;91.28;65281.44;5034752;28;20190;-56
2023/08/22 01:27:47;;;;;;;9.07;8.18;;;;;;;21.89;90.94;65288.66;5052786;28;20711;-53
2023/08/22 01:30:22;;;;;;;8.63;7.72;;;;;;;21.89;91.48;65291.22;5052684;28;20225;-53
2023/08/22 01:32:51;;;;;;;9.15;8.30;;;;;;;21.87;91.60;65287.00;5052231;28;20296;-53
2023/08/22 01:35:20;;;;;;;9.10;8.20;;;;;;;21.88;91.45;65290.09;5052352;28;20693;-54
2023/08/22 01:37:48;;;;;;;11.23;8.40;;;;;;;21.88;91.68;65292.66;5052235;28;20214;-53
2023/08/22 01:40:15;;;;;;;9.55;8.23;;;;;;;21.82;92.26;65283.47;5051988;28;20212;-56
2023/08/22 01:42:41;;;;;;;9.27;8.32;;;;;;;21.81;92.94;65279.78;5052051;28;20275;-62
2023/08/22 01:45:07;;;;;;;9.88;8.32;;;;;;;21.95;92.32;65300.97;5052147;28;20200;-54
2023/08/22 01:47:35;;;;;;;9.35;8.45;;;;;;;21.96;91.86;65299.50;5052360;28;20213;-54
2023/08/22 01:50:01;;;;;;;10.35;8.13;;;;;;;22.04;90.04;65310.38;5052255;28;20243;-53
2023/08/22 01:52:27;;;;;;;10.30;8.70;;;;;;;21.96;90.49;65299.50;5051933;28;20671;-54
2023/08/22 01:54:52;;;;;;;7.85;7.05;;;;;;;21.85;91.00;65289.91;5052134;28;20255;-54
2023/08/22 01:57:18;;;;;;;9.05;8.15;;;;;;;21.78;91.31;65279.56;5052182;28;20221;-53
2023/08/22 01:59:43;;;;;;;9.52;8.02;;;;;;;21.67;91.72;65267.94;5034219;28;20205;-53
2023/08/22 02:02:09;;;;;;;10.73;9.10;;;;;;;21.57;92.55;65256.34;5050829;28;20648;-53
2023/08/22 02:04:34;;;;;;;9.63;8.27;;;;;;;21.56;92.81;65255.78;5050524;28;20288;-52
2023/08/22 02:07:00;;;;;;;10.63;8.18;;;;;;;21.51;93.18;65249.72;5050958;28;20213;-53
2023/08/22 02:09:26;;;;;;;10.23;8.88;;;;;;;21.50;93.09;65249.16;5051049;28;20201;-60
2023/08/22 02:11:52;;;;;;;9.20;8.30;;;;;;;21.52;93.14;65253.38;5050919;28;20221;-53
2023/08/22 02:14:17;;;;;;;11.90;8.55;;;;;;;21.57;93.27;65259.44;5051259;28;20292;-54
2023/08/22 02:16:43;;;;;;;10.50;7.57;;;;;;;21.58;92.75;65258.00;5051583;28;20578;-53
2023/08/22 02:19:08;;;;;;;9.07;8.18;;;;;;;21.49;93.63;65250.06;5051413;28;20256;-58
2023/08/22 02:21:34;;;;;;;10.45;8.30;;;;;;;21.64;92.73;65261.50;5051596;28;20224;-53
2023/08/22 02:24:00;;;;;;;12.15;8.55;;;;;;;21.63;92.67;65263.53;5051858;28;20511;-53
2023/08/22 02:26:26;;;;;;;11.55;8.70;;;;;;;21.55;92.89;65251.56;5051582;28;20543;-53
2023/08/22 02:28:52;;;;;;;10.30;8.70;;;;;;;21.60;93.07;65259.66;5051670;28;20228;-53
2023/08/22 02:31:19;;;;;;;8.95;8.05;;;;;;;21.60;92.82;65257.09;5033755;28;20287;-52
2023/08/22 02:33:45;;;;;;;11.35;9.60;;;;;;;21.63;92.69;65265.53;5051447;28;20205;-53
2023/08/22 02:36:10;;;;;;;8.85;8.05;;;;;;;21.62;92.57;65262.44;5051586;28;20298;-53
2023/08/22 02:38:36;;;;;;;11.35;8.27;;;;;;;21.60;92.44;65259.66;5051489;28;20229;-53
2023/08/22 02:41:15;;;;;;;9.50;8.35;;;;;;;21.55;93.09;65251.56;5051332;28;20300;-53
2023/08/22 02:43:41;;;;;;;8.98;8.18;;;;;;;21.44;93.84;65239.94;5033489;28;20642;-52
2023/08/22 02:46:07;;;;;;;9.82;8.77;;;;;;;21.38;94.07;65238.44;5051072;28;20308;-53
2023/08/22 02:48:33;;;;;;;9.38;8.27;;;;;;;21.33;93.98;65230.34;5051266;28;20565;-53
2023/08/22 02:50:58;;;;;;;8.50;7.70;;;;;;;21.37;94.25;65237.31;5033100;28;20291;-53
2023/08/22 02:53:24;;;;;;;9.98;8.40;;;;;;;21.53;93.32;65251.91;5050798;28;20236;-53
2023/08/22 02:55:51;;;;;;;14.55;9.05;;;;;;;21.44;93.95;65242.50;5033151;28;20280;-53
2023/08/22 02:58:16;;;;;;;11.60;9.07;;;;;;;21.48;93.76;65246.38;5051040;28;20244;-53
2023/08/22 03:00:46;;;;;;;10.25;9.15;;;;;;;21.49;93.39;65248.03;5051004;28;20284;-53
2023/08/22 03:03:13;;;;;;;9.40;8.40;;;;;;;21.53;93.38;65249.88;5050816;28;20275;-54
2023/08/22 03:05:38;;;;;;;10.60;8.75;;;;;;;21.50;93.75;65248.59;5051061;28;20202;-53
2023/08/22 03:08:04;;;;;;;9.60;8.38;;;;;;;21.42;94.08;65242.31;5050941;28;20209;-53
2023/08/22 03:10:29;;;;;;;9.35;8.45;;;;;;;21.30;94.78;65226.47;5050890;28;20197;-53
2023/08/22 03:12:55;;;;;;;9.80;8.18;;;;;;;21.32;95.46;65231.81;5051165;28;20593;-53
2023/08/22 03:15:20;;;;;;;10.00;9.07;;;;;;;21.37;95.47;65234.75;5032991;28;20755;-53
2023/08/22 03:17:45;;;;;;;9.38;8.43;;;;;;;21.43;95.05;65241.41;5050551;28;20221;-53
2023/08/22 03:20:11;;;;;;;11.40;8.43;;;;;;;21.50;92.64;65249.16;5050702;28;20262;-52
2023/08/22 03:22:37;;;;;;;9.60;8.70;;;;;;;21.49;92.58;65248.03;5050944;28;20210;-53
2023/08/22 03:25:02;;;;;;;10.60;8.32;;;;;;;21.47;92.94;65245.81;5050691;28;20299;-54
2023/08/22 03:27:29;;;;;;;10.40;9.25;;;;;;;21.34;93.72;65231.44;5050500;28;20797;-52
2023/08/22 03:29:54;;;;;;;12.27;9.35;;;;;;;21.43;93.56;65241.41;5050784;28;20207;-55
2023/08/22 03:32:20;;;;;;;10.38;8.20;;;;;;;21.31;94.98;65228.13;5050548;28;20262;-53
2023/08/22 03:34:45;;;;;;;10.65;9.57;;;;;;;21.35;94.91;65234.56;5050721;28;20289;-55
2023/08/22 03:37:11;;;;;;;9.93;8.65;;;;;;;21.43;94.41;65246.00;5050329;28;20593;-54
2023/08/22 03:39:36;;;;;;;9.90;8.45;;;;;;;21.44;94.49;65242.50;5032672;28;20197;-53
2023/08/22 03:42:02;;;;;;;10.02;9.02;;;;;;;21.50;93.49;65249.16;5050701;28;20225;-52
2023/08/22 03:44:27;;;;;;;12.10;8.77;;;;;;;21.53;93.31;65254.47;5050307;28;20196;-51
2023/08/22 03:46:53;;;;;;;10.30;8.75;;;;;;;21.55;93.81;65257.22;5050318;28;20625;-51
2023/08/22 03:49:18;;;;;;;12.13;9.40;;;;;;;21.58;93.01;65255.44;5050313;28;20654;-51
2023/08/22 03:51:43;;;;;;;10.75;9.65;;;;;;;21.65;93.04;65265.72;5050482;28;20300;-52
2023/08/22 03:54:09;;;;;;;12.52;9.15;;;;;;;21.58;93.00;65260.56;5050345;28;20227;-51
2023/08/22 03:56:34;;;;;;;12.48;9.00;;;;;;;21.77;92.38;65281.03;5050262;28;20697;-52
2023/08/22 03:59:00;;;;;;;10.32;8.45;;;;;;;21.79;91.64;65283.25;5050078;28;20189;-51
2023/08/22 04:01:26;;;;;;;12.35;9.18;;;;;;;21.77;92.02;65278.47;5050025;28;20313;-55
2023/08/22 04:03:51;;;;;;;10.70;9.18;;;;;;;21.81;92.42;65282.91;5048878;28;20276;-51
2023/08/22 04:06:17;;;;;;;9.25;8.27;;;;;;;21.69;92.24;65270.16;5049862;28;20231;-55
2023/08/22 04:08:42;;;;;;;12.45;8.73;;;;;;;21.85;92.05;65289.34;5050047;28;20193;-52
2023/08/22 04:11:08;;;;;;;12.30;9.30;;;;;;;21.92;92.10;65297.66;5050021;28;20292;-51
2023/08/22 04:13:34;;;;;;;12.38;9.25;;;;;;;22.43;88.50;65350.97;5049927;28;20252;-52
2023/08/22 04:16:00;;;;;;;11.48;10.02;;;;;;;22.15;89.51;65317.41;5031884;28;20198;-52
2023/08/22 04:18:25;;;;;;;19.10;10.10;;;;;;;21.93;90.67;65295.63;5050300;28;20212;-51
2023/08/22 04:20:51;;;;;;;11.55;9.85;;;;;;;21.61;92.13;65260.78;5049665;28;20726;-51
2023/08/22 04:23:17;;;;;;;10.82;9.73;;;;;;;21.55;92.59;65252.09;5049681;28;20684;-51
2023/08/22 04:25:43;;;;;;;12.20;9.85;;;;;;;21.46;92.79;65244.72;5050005;28;20204;-52
2023/08/22 04:28:08;;;;;;;13.35;10.02;;;;;;;21.49;92.36;65247.50;5049987;28;20220;-52
2023/08/22 04:30:34;;;;;;;10.50;9.00;;;;;;;21.41;92.75;65236.09;5049956;28;20284;-52
2023/08/22 04:33:00;;;;;;;9.82;8.82;;;;;;;21.34;93.10;65231.44;5050213;28;20589;-51
2023/08/22 04:35:25;;;;;;;10.90;8.57;;;;;;;21.38;93.21;65235.88;5049710;28;20197;-53
2023/08/22 04:37:51;;;;;;;14.20;9.07;;;;;;;21.43;95.68;65243.44;5049642;28;20213;-51
2023/08/22 04:40:16;;;;;;;10.30;9.20;;;;;;;21.59;93.77;65258.56;5049820;28;20212;-52
2023/08/22 04:42:41;;;;;;;13.05;9.07;;;;;;;21.66;91.77;65263.72;5049939;28;20275;-50
2023/08/22 04:45:08;;;;;;;10.43;8.48;;;;;;;21.70;91.47;65270.72;5049598;28;20280;-50
2023/08/22 04:47:34;;;;;;;10.70;9.60;;;;;;;21.64;94.89;65264.63;5031785;28;20218;-50
2023/08/22 04:49:59;;;;;;;10.70;8.88;;;;;;;21.85;94.31;65286.78;5031529;28;20190;-51
2023/08/22 04:52:25;;;;;;;10.73;9.73;;;;;;;21.88;91.96;65290.09;5049829;28;20271;-50
2023/08/22 04:54:51;;;;;;;13.80;9.73;;;;;;;22.14;95.86;65321.47;5049453;28;20551;-52
2023/08/22 04:57:16;;;;;;;12.65;9.32;;;;;;;22.33;89.30;65340.47;5049658;28;20271;-52
2023/08/22 04:59:42;;;;;;;12.80;10.13;;;;;;;22.42;92.53;65352.44;5049356;28;20652;-53
2023/08/22 05:02:07;;;;;;;13.18;9.27;;;;;;;22.61;91.16;65368.34;5049123;28;20663;-56
2023/08/22 05:04:32;;;;;;;12.13;9.38;;;;;;;22.90;90.30;65399.91;5049447;28;20281;-50
2023/08/22 05:06:58;;;;;;;11.27;9.07;;;;;;;23.11;88.28;65423.72;5049410;28;20684;-51
2023/08/22 05:09:24;;;;;;;9.60;8.65;;;;;;;23.25;86.41;65441.81;5049184;28;20214;-51
2023/08/22 05:11:50;;;;;;;10.27;8.68;;;;;;;23.48;85.71;65466.19;5049142;28;20218;-52
2023/08/22 05:14:15;;;;;;;13.77;9.80;;;;;;;23.81;80.08;65500.78;5049255;28;20201;-52
2023/08/22 05:16:44;;;;;;;9.13;8.27;;;;;;;23.73;82.10;65494.47;5033999;28;20228;-51
2023/08/22 05:19:10;;;;;;;12.50;9.25;;;;;;;23.67;83.21;65487.28;5052564;28;20197;-51
2023/08/22 05:21:36;;;;;;;11.07;9.82;;;;;;;23.82;81.86;65504.44;5034306;28;20580;-52
2023/08/22 05:24:02;;;;;;;10.50;8.85;;;;;;;23.75;79.69;65496.13;5052783;28;20241;-51
2023/08/22 05:26:27;;;;;;;13.15;11.25;;;;;;;23.46;84.44;65464.00;5052337;28;20213;-52
2023/08/22 05:28:53;;;;;;;13.73;10.32;;;;;;;23.64;87.14;65481.91;5052613;28;20274;-51
2023/08/22 05:31:20;;;;;;;14.15;9.98;;;;;;;23.74;86.60;65493.00;5052370;28;20706;-51
2023/08/22 05:33:45;;;;;;;11.85;9.27;;;;;;;23.79;85.57;65498.00;5052451;28;20319;-52
2023/08/22 05:36:11;;;;;;;10.57;9.38;;;;;;;23.76;80.31;65497.78;5052270;28;20243;-51
2023/08/22 05:38:36;;;;;;;12.02;10.00;;;;;;;23.79;79.04;65498.56;5052441;28;20204;-52
2023/08/22 05:41:02;;;;;;;12.55;10.00;;;;;;;23.44;83.95;65461.78;5052270;28;20209;-54
2023/08/22 05:43:28;;;;;;;11.82;9.85;;;;;;;23.43;83.58;65458.09;5051735;28;20206;-52
2023/08/22 05:45:53;;;;;;;11.60;10.07;;;;;;;23.27;83.05;65440.91;5050023;28;20198;-53
2023/08/22 05:48:18;;;;;;;12.02;9.18;;;;;;;23.22;84.74;65435.38;5052323;28;20209;-53
2023/08/22 05:50:44;;;;;;;12.77;10.55;;;;;;;23.45;81.98;65460.88;5051729;28;20190;-53
2023/08/22 05:53:09;;;;;;;12.23;10.70;;;;;;;23.54;80.42;65473.41;5033117;28;20212;-53
2023/08/22 05:55:35;;;;;;;11.38;9.50;;;;;;;23.36;84.83;65453.47;5052115;28;20658;-52
2023/08/22 05:58:01;;;;;;;13.52;9.20;;;;;;;23.30;85.77;65444.78;5034257;28;20267;-53
2023/08/22 06:00:26;;;;;;;12.48;10.75;;;;;;;23.45;81.97;65460.31;5052305;28;20201;-54
2023/08/22 06:02:52;;;;;;;14.00;10.02;;;;;;;23.32;84.09;65447.03;5052247;28;20249;-54
2023/08/22 06:05:17;;;;;;;14.82;10.68;;;;;;;23.30;84.36;65444.22;5034181;28;20581;-54
2023/08/22 06:07:43;;;;;;;15.05;9.57;;;;;;;23.44;85.62;65462.34;5052108;28;20829;-53
2023/08/22 06:10:09;;;;;;;10.43;9.20;;;;;;;23.56;84.06;65472.50;5052041;28;20225;-53
2023/08/22 06:12:35;;;;;;;12.27;10.45;;;;;;;23.82;81.39;65501.31;5052216;28;20210;-52
2023/08/22 06:15:00;;;;;;;13.40;10.27;;;;;;;23.66;85.19;65483.56;5017385;28;20202;-55
2023/08/22 06:17:25;;;;;;;12.40;10.10;;;;;;;23.96;84.60;65516.81;5034294;28;20288;-54
2023/08/22 06:19:52;;;;;;;12.50;10.05;;;;;;;24.11;82.46;65533.50;5034389;28;20206;-53
2023/08/22 06:22:17;;;;;;;13.73;10.82;;;;;;;24.14;79.41;65539.38;5033630;28;20272;-53
2023/08/22 06:24:43;;;;;;;13.20;10.32;;;;;;;23.78;81.91;65499.44;5052059;28;20237;-53
2023/08/22 06:27:09;;;;;;;15.35;12.10;;;;;;;23.55;83.45;65471.97;5051009;28;20243;-54
2023/08/22 06:29:34;;;;;;;23.50;18.80;;;;;;;23.60;83.90;65482.06;5051901;28;20225;-52
2023/08/22 06:32:02;;;;;;;19.58;14.55;;;;;;;23.61;84.56;65483.19;5033705;28;20738;-54
2023/08/22 06:34:30;;;;;;;16.35;12.23;;;;;;;23.63;85.25;65482.84;5034225;28;20668;-53
2023/08/22 06:36:57;;;;;;;18.38;16.02;;;;;;;23.75;85.54;65493.56;5051874;28;20295;-57
2023/08/22 06:39:22;;;;;;;21.27;14.25;;;;;;;23.77;86.63;65495.78;5051593;28;20206;-58
2023/08/22 06:41:48;;;;;;;15.30;12.13;;;;;;;23.79;86.54;65498.00;5051431;28;20638;-55
2023/08/22 06:44:13;;;;;;;29.13;22.48;;;;;;;23.83;86.39;65505.00;5051394;28;20210;-53
2023/08/22 06:46:40;;;;;;;14.90;12.30;;;;;;;23.98;85.87;65522.19;5051639;28;20285;-55
2023/08/22 06:49:06;;;;;;;17.83;13.18;;;;;;;23.96;87.17;65519.41;5051456;28;20323;-54
2023/08/22 06:51:32;;;;;;;17.60;13.68;;;;;;;23.91;86.86;65511.28;5051479;28;20676;-54
2023/08/22 06:53:59;;;;;;;19.35;13.90;;;;;;;23.95;86.43;65516.28;5033579;28;20291;-53
2023/08/22 06:56:26;;;;;;;16.13;11.85;;;;;;;24.02;85.93;65526.63;5051418;28;20201;-52
2023/08/22 06:58:52;;;;;;;13.77;11.95;;;;;;;24.11;85.80;65533.50;5033507;28;20682;-52
2023/08/22 07:01:19;;;;;;;15.25;11.93;;;;;;;24.26;85.13;65550.09;5033249;28;20232;-52
2023/08/22 07:03:44;;;;;;;15.48;12.70;;;;;;;24.22;85.20;65545.69;5051132;28;20193;-52
2023/08/22 07:06:10;;;;;;;14.50;12.25;;;;;;;24.39;84.51;65564.53;5050992;28;20224;-52
2023/08/22 07:08:35;;;;;;;19.80;13.18;;;;;;;24.66;83.38;65591.91;5033398;28;20293;-52
2023/08/22 07:11:04;;;;;;;19.90;13.18;;;;;;;24.78;82.86;65605.25;5051196;28;20272;-51
2023/08/22 07:13:30;;;;;;;15.93;12.93;;;;;;;24.83;82.08;65612.81;5051149;28;20204;-52
2023/08/22 07:15:56;;;;;;;16.23;12.02;;;;;;;24.76;83.53;65608.19;5051095;28;20281;-52
2023/08/22 07:18:21;;;;;;;25.65;14.82;;;;;;;24.70;83.48;65601.50;5050751;28;20241;-59
2023/08/22 07:20:51;;;;;;;19.05;13.95;;;;;;;24.77;82.80;65608.72;5050912;28;20202;-54
2023/08/22 07:23:17;;;;;;;16.13;13.15;;;;;;;24.86;82.33;65616.13;5033170;28;20259;-54
2023/08/22 07:25:47;;;;;;;17.25;12.90;;;;;;;24.98;81.79;65629.44;5050972;28;20602;-51
2023/08/22 07:28:13;;;;;;;18.55;13.43;;;;;;;25.10;80.30;65642.75;5050756;28;20294;-52
2023/08/22 07:30:39;;;;;;;18.40;11.68;;;;;;;25.13;80.80;65648.13;5033094;28;20638;-51
2023/08/22 07:33:05;;;;;;;20.63;14.55;;;;;;;25.13;80.42;65645.53;5050928;28;20214;-52
2023/08/22 07:35:34;;;;;;;13.75;12.35;;;;;;;25.23;79.37;65656.66;5050907;28;20512;-51
2023/08/22 07:38:00;;;;;;;14.80;12.73;;;;;;;25.32;79.77;65666.63;5050401;28;20217;-52
2023/08/22 07:40:25;;;;;;;17.88;13.10;;;;;;;25.34;79.02;65666.25;5050671;28;20682;-52
2023/08/22 07:42:50;;;;;;;17.50;13.30;;;;;;;25.37;78.13;65672.72;5032788;28;20216;-56
2023/08/22 07:45:16;;;;;;;14.63;11.88;;;;;;;25.50;78.32;65687.19;5050687;28;20292;-51
2023/08/22 07:47:42;;;;;;;17.30;12.50;;;;;;;25.61;77.31;65698.84;5050688;28;20221;-53
2023/08/22 07:50:08;;;;;;;20.02;12.73;;;;;;;25.76;77.26;65718.63;5050474;28;20596;-51
2023/08/22 07:52:34;;;;;;;23.00;17.67;;;;;;;26.02;76.14;65744.34;5050696;28;20598;-55
2023/08/22 07:55:00;;;;;;;21.83;18.52;;;;;;;26.02;74.93;65739.19;5050562;28;20197;-54
2023/08/22 07:57:25;;;;;;;30.27;15.10;;;;;;;26.06;74.87;65748.25;5050626;28;20731;-51
2023/08/22 07:59:51;;;;;;;22.15;14.80;;;;;;;26.18;74.08;65759.56;5050549;28;20181;-51
2023/08/22 08:02:16;;;;;;;17.30;11.85;;;;;;;26.28;71.30;65775.84;5050402;28;20229;-51
2023/08/22 08:04:42;;;;;;;15.02;11.68;;;;;;;26.46;70.28;65790.13;5050421;28;20617;-52
2023/08/22 08:07:08;;;;;;;13.05;10.50;;;;;;;26.86;68.69;65837.19;5050321;28;20244;-52
2023/08/22 08:09:34;;;;;;;13.73;11.38;;;;;;;26.93;68.89;65844.38;5050320;28;20275;-51
2023/08/22 08:12:00;;;;;;;13.95;10.88;;;;;;;26.90;67.99;65841.06;5050314;28;20206;-52
2023/08/22 08:14:26;;;;;;;14.50;11.05;;;;;;;27.04;68.79;65859.22;5050169;28;20283;-52
2023/08/22 08:16:51;;;;;;;15.32;11.48;;;;;;;27.09;69.68;65862.72;5050061;28;20581;-53
2023/08/22 08:19:16;;;;;;;19.98;15.60;;;;;;;26.97;68.81;65848.81;5050196;28;20193;-52
2023/08/22 08:21:42;;;;;;;30.13;17.73;;;;;;;26.97;69.11;65848.81;5050336;28;20244;-51
2023/08/22 08:24:08;;;;;;;18.70;11.95;;;;;;;27.07;67.67;65859.97;5032137;28;20530;-53
2023/08/22 08:26:34;;;;;;;24.85;13.68;;;;;;;27.12;67.15;65866.06;5049915;28;20223;-53
2023/08/22 08:28:59;;;;;;;18.00;10.90;;;;;;;27.12;66.05;65865.50;5032035;28;20204;-51
2023/08/22 08:31:25;;;;;;;14.98;10.93;;;;;;;27.07;65.00;65862.56;5050006;28;20225;-52
2023/08/22 08:33:50;;;;;;;22.98;11.52;;;;;;;27.23;64.15;65878.28;5049908;28;20605;-52
2023/08/22 08:36:17;;;;;;;15.23;10.95;;;;;;;27.52;65.37;65907.41;5049834;28;20217;-53
2023/08/22 08:38:43;;;;;;;13.93;11.05;;;;;;;27.85;64.17;65946.16;5049823;28;20204;-57
2023/08/22 08:41:09;;;;;;;15.45;9.32;;;;;;;27.93;62.00;65958.19;5049794;28;20221;-52
2023/08/22 08:43:35;;;;;;;10.30;9.13;;;;;;;28.24;59.69;65990.09;5049693;28;20198;-53
2023/08/22 08:46:03;;;;;;;12.75;9.30;;;;;;;28.23;61.79;65991.59;5049547;28;20798;-52
2023/08/22 08:48:29;;;;;;;11.32;9.70;;;;;;;28.40;60.71;66006.81;5074985;22;20240;-51
2023/08/22 08:50:58;;;;;;;15.93;9.35;;;;;;;28.72;56.55;66042.44;5071321;28;20270;-52
2023/08/22 08:53:26;;;;;;;12.77;8.48;;;;;;;28.83;55.95;66052.66;5073178;28;20204;-57
2023/08/22 08:55:52;;;;;;;15.70;11.30;;;;;;;28.95;53.80;66068.03;5055022;28;20210;-54
2023/08/22 08:58:17;;;;;;;13.07;8.88;;;;;;;29.03;55.14;66076.94;5073195;28;20197;-53
2023/08/22 09:00:47;;;;;;;17.45;9.57;;;;;;;29.15;54.94;66087.19;5073265;28;20197;-53
2023/08/22 09:03:13;;;;;;;14.70;10.80;;;;;;;29.17;56.21;66092.56;5054943;28;20208;-53
2023/08/22 09:05:38;;;;;;;21.38;14.65;;;;;;;29.21;54.78;66097.00;5073030;28;20203;-54
2023/08/22 09:08:20;;;;;;;10.27;8.52;;;;;;;29.52;53.60;66130.97;5073042;28;20216;-53
2023/08/22 09:10:51;;;;;;;14.65;9.18;;;;;;;29.72;52.46;66151.25;5072913;28;20197;-55
2023/08/22 09:13:24;;;;;;;14.13;9.02;;;;;;;29.73;49.74;66154.97;5072622;28;20291;-53
2023/08/22 09:15:50;;;;;;;27.25;13.27;;;;;;;29.71;48.78;66149.56;5072736;28;20271;-52
2023/08/22 09:18:16;;;;;;;13.52;7.70;;;;;;;29.99;48.09;66180.22;5038393;28;20659;-52
2023/08/22 09:20:45;;;;;;;10.90;6.75;;;;;;;30.28;47.54;66215.13;5072883;28;20258;-52
2023/08/22 09:23:28;;;;;;;13.43;7.70;;;;;;;30.57;47.49;66244.88;5073246;28;20221;-52
2023/08/22 09:25:54;;;;;;;11.32;7.30;;;;;;;30.78;46.57;66268.28;5072832;28;20197;-52
2023/08/22 09:28:19;;;;;;;10.23;7.32;;;;;;;31.07;46.53;66297.50;5072566;28;20204;-52
2023/08/22 09:30:49;;;;;;;20.85;12.35;;;;;;;30.90;45.50;66281.69;5072522;28;20201;-52
2023/08/22 09:33:16;;;;;;;16.10;9.15;;;;;;;31.01;44.08;66293.94;5054367;28;20687;-51
2023/08/22 09:35:42;;;;;;;10.80;7.47;;;;;;;31.11;43.75;66301.97;5054474;28;20205;-51
2023/08/22 09:38:10;;;;;;;13.25;7.05;;;;;;;31.22;42.34;66319.44;5072418;28;20220;-51
2023/08/22 09:40:48;;;;;;;10.60;5.93;;;;;;;31.70;43.26;66370.38;5072433;28;20216;-51
2023/08/22 09:43:13;;;;;;;8.57;6.15;;;;;;;32.09;41.53;66410.78;5073291;28;20262;-51
2023/08/22 09:45:42;;;;;;;10.32;6.30;;;;;;;32.08;38.60;66412.25;5072581;28;20205;-52
2023/08/22 09:48:12;;;;;;;6.20;5.60;;;;;;;32.16;39.65;66418.56;5072342;28;20282;-51
2023/08/22 09:50:42;;;;;;;6.25;5.65;;;;;;;32.10;36.49;66414.50;5072323;28;20204;-53
2023/08/22 09:53:10;;;;;;;8.52;5.15;;;;;;;32.41;36.66;66454.31;5072241;28;20223;-51
2023/08/22 09:55:37;;;;;;;7.43;6.50;;;;;;;32.75;36.70;66486.53;5072129;28;20196;-52
2023/08/22 09:58:04;;;;;;;9.85;5.80;;;;;;;32.79;36.43;66491.00;5077928;22;20286;-51
2023/08/22 10:00:31;;;;;;;6.78;6.03;;;;;;;32.81;36.28;66493.22;5072163;28;20663;-52
2023/08/22 10:03:00;;;;;;;6.75;5.43;;;;;;;32.97;36.97;66513.72;5071062;28;20699;-52
2023/08/22 10:05:27;;;;;;;9.45;5.90;;;;;;;33.02;36.04;66517.28;5071742;28;20193;-52
2023/08/22 10:07:52;;;;;;;8.43;6.60;;;;;;;33.33;37.47;66551.31;5072167;28;20223;-52
2023/08/22 10:10:18;;;;;;;9.27;7.32;;;;;;;33.29;36.13;66546.31;5071859;28;20200;-52
2023/08/22 10:12:44;;;;;;;9.02;6.35;;;;;;;33.60;36.01;66580.97;5072086;28;20209;-51
2023/08/22 10:15:13;;;;;;;7.75;5.93;;;;;;;33.69;34.64;66591.03;5071780;28;20254;-52
2023/08/22 10:17:40;;;;;;;6.82;5.55;;;;;;;33.51;34.70;66570.91;5071908;28;20212;-52
2023/08/22 10:20:11;;;;;;;7.75;6.95;;;;;;;33.37;35.18;66555.25;5072009;28;20196;-52
2023/08/22 10:22:36;;;;;;;8.52;6.03;;;;;;;33.76;36.65;66596.78;5071665;28;20247;-51
2023/08/22 10:25:07;;;;;;;14.02;12.57;;;;;;;33.84;35.33;66607.78;5071911;28;20228;-51
2023/08/22 10:27:35;;;;;;;7.82;5.80;;;;;;;33.94;35.62;66618.97;5078849;22;20290;-52
2023/08/22 10:30:12;;;;;;;8.02;6.40;;;;;;;34.07;35.74;66633.53;5053665;28;20288;-51
2023/08/22 10:32:38;;;;;;;7.68;6.25;;;;;;;34.20;35.05;66644.88;5071427;28;20311;-52
2023/08/22 10:35:21;;;;;;;9.98;5.97;;;;;;;34.21;35.00;66649.19;5071628;28;20276;-53
2023/08/22 10:37:49;;;;;;;9.52;6.75;;;;;;;33.67;35.10;66586.75;5053333;28;20212;-53
2023/08/22 10:40:26;;;;;;;8.23;6.60;;;;;;;33.29;34.92;66546.31;5071525;28;20205;-52
2023/08/22 10:43:05;;;;;;;7.78;6.18;;;;;;;33.83;35.33;66606.69;5071437;28;20690;-52
2023/08/22 10:45:50;;;;;;;8.60;6.15;;;;;;;34.00;34.65;66625.69;5071656;28;20232;-51
2023/08/22 10:48:18;;;;;;;8.40;5.90;;;;;;;34.53;34.82;66682.38;5071301;28;20211;-52
2023/08/22 10:50:45;;;;;;;6.75;6.03;;;;;;;34.85;34.52;66717.59;5071304;28;20189;-52
2023/08/22 10:53:41;;;;;;;7.88;6.15;;;;;;;34.76;34.78;66710.16;5071326;28;20212;-52
2023/08/22 10:56:23;;;;;;;10.55;6.57;;;;;;;34.97;34.03;66733.66;5071088;28;20216;-52
2023/08/22 10:58:58;;;;;;;10.48;6.93;;;;;;;34.84;33.88;66718.53;5071193;28;20674;-54
2023/08/22 11:01:24;;;;;;;11.48;8.57;;;;;;;34.31;34.37;66657.75;5071160;28;20212;-53
2023/08/22 11:03:51;;;;;;;12.45;8.98;;;;;;;33.92;34.94;66616.19;5071174;28;20204;-54
2023/08/22 11:06:22;;;;;;;12.27;8.98;;;;;;;33.11;35.21;66526.22;5052850;28;20625;-51
2023/08/22 11:08:47;;;;;;;8.40;6.15;;;;;;;32.88;36.23;66503.66;5071278;28;20192;-53
2023/08/22 11:11:14;;;;;;;9.45;8.25;;;;;;;32.85;36.66;66497.69;5071139;28;20269;-52
2023/08/22 11:13:41;;;;;;;8.50;6.03;;;;;;;32.63;37.09;66473.69;5052501;28;20208;-51
2023/08/22 11:16:12;;;;;;;8.02;6.65;;;;;;;32.43;37.64;66451.34;5070816;28;20208;-51
2023/08/22 11:18:40;;;;;;;12.68;7.28;;;;;;;32.35;38.53;66442.41;5052896;28;20204;-52
2023/08/22 11:21:07;;;;;;;12.40;6.70;;;;;;;32.27;38.00;66436.09;5070549;28;20212;-54
2023/08/22 11:23:35;;;;;;;7.45;6.63;;;;;;;32.35;38.51;66444.44;5070634;28;20215;-58
2023/08/22 11:26:02;;;;;;;10.00;7.65;;;;;;;32.43;39.13;66450.78;5070831;28;20246;-53